createdAt,value
2023-03-06T00:02:24.285Z,1.89
2023-03-06T00:04:50.801Z,1.85
2023-03-06T00:07:17.276Z,1.85
2023-03-06T00:09:43.767Z,1.85
2023-03-06T00:12:10.440Z,1.85
2023-03-06T00:14:36.935Z,1.82
2023-03-06T00:17:03.993Z,1.79
2023-03-06T00:19:30.465Z,1.77
2023-03-06T00:21:57.113Z,1.74
2023-03-06T00:24:23.662Z,1.75
2023-03-06T00:26:50.798Z,1.67
2023-03-06T00:29:17.311Z,1.65
2023-03-06T00:31:47.762Z,1.66
2023-03-06T00:34:15.030Z,1.63
2023-03-06T00:36:41.913Z,1.61
2023-03-06T00:39:09.534Z,1.59
2023-03-06T00:41:36.126Z,1.55
2023-03-06T00:44:02.554Z,1.52
2023-03-06T00:46:29.042Z,1.50
2023-03-06T00:48:55.728Z,1.47
2023-03-06T00:51:22.232Z,1.46
2023-03-06T00:53:48.850Z,1.42
2023-03-06T00:56:19.891Z,1.42
2023-03-06T00:58:47.545Z,1.38
2023-03-06T01:01:14.086Z,1.35
2023-03-06T01:03:40.695Z,1.34
2023-03-06T01:06:07.405Z,1.33
2023-03-06T01:08:35.248Z,1.33
2023-03-06T01:11:01.778Z,1.33
2023-03-06T01:13:28.296Z,1.31
2023-03-06T01:15:54.811Z,1.31
2023-03-06T01:18:21.397Z,1.30
2023-03-06T01:20:48.650Z,1.29
2023-03-06T01:23:17.973Z,1.29
2023-03-06T01:25:44.441Z,1.29
2023-03-06T01:28:10.965Z,1.30
2023-03-06T01:30:37.563Z,1.25
2023-03-06T01:33:04.062Z,1.25
2023-03-06T01:35:30.538Z,1.21
2023-03-06T01:37:57.012Z,1.21
2023-03-06T01:40:23.537Z,1.18
2023-03-06T01:42:50.606Z,1.15
2023-03-06T01:45:16.995Z,1.12
2023-03-06T01:47:44.776Z,1.11
2023-03-06T01:50:12.580Z,1.08
2023-03-06T01:53:00.424Z,1.04
2023-03-06T01:55:32.849Z,1.01
2023-03-06T01:58:03.430Z,0.97
2023-03-06T02:00:30.410Z,0.94
2023-03-06T02:03:04.632Z,0.91
2023-03-06T02:05:31.179Z,0.90
2023-03-06T02:07:58.197Z,0.85
2023-03-06T02:10:25.051Z,0.81
2023-03-06T02:12:52.291Z,0.78
2023-03-06T02:15:22.880Z,0.77
2023-03-06T02:17:51.225Z,0.75
2023-03-06T02:20:28.850Z,0.72
2023-03-06T02:23:10.293Z,0.71
2023-03-06T02:25:45.947Z,0.69
2023-03-06T02:28:15.391Z,0.66
2023-03-06T02:30:43.642Z,0.64
2023-03-06T02:33:17.354Z,0.63
2023-03-06T02:35:49.634Z,0.64
2023-03-06T02:38:19.961Z,0.61
2023-03-06T02:40:49.709Z,0.63
2023-03-06T02:43:22.849Z,0.63
2023-03-06T02:45:51.211Z,0.63
2023-03-06T02:48:19.122Z,0.63
2023-03-06T02:50:46.336Z,0.65
2023-03-06T02:53:14.845Z,0.66
2023-03-06T02:55:41.347Z,0.69
2023-03-06T02:58:08.379Z,0.72
2023-03-06T03:00:35.296Z,0.73
2023-03-06T03:03:05.855Z,0.77
2023-03-06T03:05:32.880Z,0.80
2023-03-06T03:08:07.102Z,0.81
2023-03-06T03:10:34.161Z,0.83
2023-03-06T03:13:00.638Z,0.84
2023-03-06T03:15:27.357Z,0.84
2023-03-06T03:17:54.191Z,0.86
2023-03-06T03:20:22.524Z,0.87
2023-03-06T03:22:54.927Z,0.88
2023-03-06T03:25:23.643Z,0.88
2023-03-06T03:27:51.411Z,0.88
2023-03-06T03:30:18.347Z,0.89
2023-03-06T03:32:45.213Z,0.91
2023-03-06T03:35:12.354Z,0.92
2023-03-06T03:37:39.916Z,0.93
2023-03-06T03:40:07.802Z,0.94
2023-03-06T03:42:34.563Z,0.94
2023-03-06T03:45:01.323Z,0.96
2023-03-06T03:47:28.429Z,0.96
2023-03-06T03:49:54.916Z,0.98
2023-03-06T03:52:21.612Z,0.99
2023-03-06T03:54:48.168Z,1.00
2023-03-06T03:57:14.625Z,1.03
2023-03-06T03:59:46.322Z,1.06
2023-03-06T04:02:23.804Z,1.08
2023-03-06T04:04:59.641Z,1.09
2023-03-06T04:07:26.623Z,1.10
2023-03-06T04:09:53.906Z,1.12
2023-03-06T04:12:20.509Z,1.13
2023-03-06T04:14:47.475Z,1.15
2023-03-06T04:17:14.074Z,1.15
2023-03-06T04:19:40.637Z,1.16
2023-03-06T04:22:07.094Z,1.18
2023-03-06T04:24:36.505Z,1.17
2023-03-06T04:27:03.155Z,1.18
2023-03-06T04:29:30.698Z,1.18
2023-03-06T04:31:57.248Z,1.19
2023-03-06T04:34:24.445Z,1.20
2023-03-06T04:36:50.989Z,1.20
2023-03-06T04:39:18.097Z,1.19
2023-03-06T04:41:44.629Z,1.21
2023-03-06T04:44:11.439Z,1.21
2023-03-06T04:46:39.010Z,1.21
2023-03-06T04:49:05.697Z,1.22
2023-03-06T04:51:32.197Z,1.23
2023-03-06T04:53:58.736Z,1.25
2023-03-06T04:56:25.152Z,1.26
2023-03-06T04:58:51.733Z,1.27
2023-03-06T05:01:18.539Z,1.28
2023-03-06T05:03:45.132Z,1.31
2023-03-06T05:06:11.648Z,1.32
2023-03-06T05:08:38.171Z,1.36
2023-03-06T05:11:04.850Z,1.39
2023-03-06T05:13:31.347Z,1.41
2023-03-06T05:16:05.475Z,1.44
2023-03-06T05:18:33.635Z,1.48
2023-03-06T05:21:00.917Z,1.49
2023-03-06T05:23:31.527Z,1.51
2023-03-06T05:25:58.089Z,1.53
2023-03-06T05:28:25.910Z,1.54
2023-03-06T05:30:52.418Z,1.55
2023-03-06T05:33:18.870Z,1.56
2023-03-06T05:35:47.234Z,1.56
2023-03-06T05:38:15.579Z,1.55
2023-03-06T05:40:43.980Z,1.55
2023-03-06T05:43:11.916Z,1.56
2023-03-06T05:45:39.103Z,1.57
2023-03-06T05:48:06.087Z,1.57
2023-03-06T05:50:33.092Z,1.56
2023-03-06T05:52:59.701Z,1.54
2023-03-06T05:55:26.139Z,1.53
2023-03-06T05:57:53.337Z,1.52
2023-03-06T06:00:20.488Z,1.51
2023-03-06T06:02:47.392Z,1.49
2023-03-06T06:05:14.565Z,1.47
2023-03-06T06:07:41.662Z,1.47
2023-03-06T06:10:09.499Z,1.47
2023-03-06T06:12:36.011Z,1.47
2023-03-06T06:15:02.565Z,1.45
2023-03-06T06:17:29.088Z,1.47
2023-03-06T06:19:55.562Z,1.48
2023-03-06T06:22:21.990Z,1.51
2023-03-06T06:24:48.481Z,1.53
2023-03-06T06:27:15.072Z,1.55
2023-03-06T06:29:41.630Z,1.59
2023-03-06T06:32:08.136Z,1.60
2023-03-06T06:34:34.790Z,1.63
2023-03-06T06:37:01.209Z,1.66
2023-03-06T06:39:28.723Z,1.67
2023-03-06T06:42:09.983Z,1.70
2023-03-06T06:44:42.138Z,1.73
2023-03-06T06:47:22.310Z,1.78
2023-03-06T06:49:52.643Z,1.81
2023-03-06T06:52:19.536Z,1.87
2023-03-06T06:54:46.184Z,1.91
2023-03-06T06:57:12.715Z,1.95
2023-03-06T06:59:39.319Z,1.96
2023-03-06T07:02:05.956Z,1.98
2023-03-06T07:04:32.621Z,2.03
2023-03-06T07:06:59.769Z,2.05
2023-03-06T07:09:26.425Z,2.09
2023-03-06T07:11:52.935Z,2.13
2023-03-06T07:14:19.460Z,2.16
2023-03-06T07:16:45.987Z,2.20
2023-03-06T07:19:12.585Z,2.25
2023-03-06T07:21:39.092Z,2.30
2023-03-06T07:24:05.830Z,2.37
2023-03-06T07:26:34.608Z,2.44
2023-03-06T07:29:02.173Z,2.48
2023-03-06T07:31:29.047Z,2.55
2023-03-06T07:33:55.824Z,2.57
2023-03-06T07:36:23.786Z,2.62
2023-03-06T07:38:50.479Z,2.70
2023-03-06T07:41:19.801Z,2.82
2023-03-06T07:43:48.463Z,2.92
2023-03-06T07:46:15.020Z,2.99
2023-03-06T07:48:42.076Z,3.07
2023-03-06T07:51:14.212Z,3.19
2023-03-06T07:53:41.260Z,3.24
2023-03-06T07:56:09.088Z,3.32
2023-03-06T07:58:37.989Z,3.36
2023-03-06T08:01:05.587Z,3.40
2023-03-06T08:03:32.443Z,3.51
2023-03-06T08:06:12.735Z,3.63
2023-03-06T08:08:40.701Z,3.73
2023-03-06T08:11:08.815Z,3.79
2023-03-06T08:13:35.810Z,3.84
2023-03-06T08:16:02.909Z,3.85
2023-03-06T08:18:29.486Z,3.82
2023-03-06T08:21:16.877Z,3.85
2023-03-06T08:23:44.510Z,3.87
2023-03-06T08:26:13.250Z,3.96
2023-03-06T08:28:39.974Z,4.07
2023-03-06T08:31:30.671Z,4.08
2023-03-06T08:33:59.562Z,4.10
2023-03-06T08:36:26.259Z,4.11
2023-03-06T08:38:53.085Z,4.17
2023-03-06T08:41:20.451Z,4.25
2023-03-06T08:43:47.781Z,4.32
2023-03-06T08:46:14.481Z,4.43
2023-03-06T08:48:41.453Z,4.46
2023-03-06T08:51:11.135Z,4.60
2023-03-06T08:53:43.604Z,4.69
2023-03-06T08:56:17.254Z,4.74
2023-03-06T08:58:44.135Z,4.84
2023-03-06T09:01:19.114Z,4.97
2023-03-06T09:03:45.739Z,5.07
2023-03-06T09:06:13.455Z,5.10
2023-03-06T09:08:43.177Z,5.17
2023-03-06T09:11:11.413Z,5.20
2023-03-06T09:13:37.938Z,5.29
2023-03-06T09:16:04.730Z,5.36
2023-03-06T09:18:31.257Z,5.53
2023-03-06T09:20:57.757Z,5.61
2023-03-06T09:23:24.225Z,5.61
2023-03-06T09:25:55.788Z,5.66
2023-03-06T09:28:22.723Z,5.63
2023-03-06T09:30:49.306Z,5.53
2023-03-06T09:33:16.443Z,5.45
2023-03-06T09:35:54.363Z,5.50
2023-03-06T09:38:24.096Z,5.59
2023-03-06T09:41:02.510Z,5.85
2023-03-06T09:43:35.998Z,6.08
2023-03-06T09:46:36.514Z,6.29
2023-03-06T09:49:15.104Z,6.39
2023-03-06T09:52:06.733Z,6.40
2023-03-06T09:54:44.807Z,6.33
2023-03-06T09:57:25.910Z,6.33
2023-03-06T09:59:55.530Z,6.18
2023-03-06T10:02:25.106Z,6.05
2023-03-06T10:05:01.107Z,6.05
2023-03-06T10:07:41.053Z,6.21
2023-03-06T10:10:24.046Z,6.34
2023-03-06T10:13:03.583Z,6.32
2023-03-06T10:15:34.618Z,6.46
2023-03-06T10:18:02.116Z,6.51
2023-03-06T10:20:36.437Z,6.52
2023-03-06T10:23:14.434Z,6.55
2023-03-06T10:25:50.245Z,6.64
2023-03-06T10:28:20.928Z,6.61
2023-03-06T10:31:01.370Z,6.79
2023-03-06T10:33:49.646Z,6.80
2023-03-06T10:36:18.990Z,6.84
2023-03-06T10:38:48.498Z,6.86
2023-03-06T10:41:35.577Z,6.92
2023-03-06T10:44:04.755Z,6.94
2023-03-06T10:46:37.573Z,6.92
2023-03-06T10:49:09.402Z,7.07
2023-03-06T10:51:35.937Z,7.17
2023-03-06T10:54:14.390Z,7.13
2023-03-06T10:56:46.344Z,7.17
2023-03-06T10:59:18.581Z,7.20
2023-03-06T11:01:46.910Z,7.22
2023-03-06T11:04:30.212Z,7.33
2023-03-06T11:07:16.373Z,7.41
2023-03-06T11:09:47.681Z,7.39
2023-03-06T11:12:32.338Z,7.48
2023-03-06T11:15:17.652Z,7.57
2023-03-06T11:17:53.005Z,7.68
2023-03-06T11:20:21.133Z,7.70
2023-03-06T11:22:59.616Z,7.67
2023-03-06T11:25:42.612Z,7.57
2023-03-06T11:28:29.580Z,7.58
2023-03-06T11:31:08.523Z,7.47
2023-03-06T11:33:46.753Z,7.48
2023-03-06T11:36:44.486Z,7.65
2023-03-06T11:39:38.770Z,7.79
2023-03-06T11:42:21.633Z,7.86
2023-03-06T11:45:02.517Z,7.83
2023-03-06T11:47:36.371Z,7.70
2023-03-06T11:50:25.458Z,7.94
2023-03-06T11:53:01.567Z,8.11
2023-03-06T11:55:45.286Z,8.11
2023-03-06T11:58:49.059Z,8.15
2023-03-06T12:01:52.897Z,8.09
2023-03-06T12:04:41.245Z,8.16
2023-03-06T12:07:27.583Z,8.15
2023-03-06T12:10:02.633Z,8.04
2023-03-06T12:12:44.417Z,7.96
2023-03-06T12:15:35.187Z,7.89
2023-03-06T12:18:19.437Z,8.03
2023-03-06T12:20:48.644Z,8.07
2023-03-06T12:23:30.335Z,7.82
2023-03-06T12:26:30.852Z,7.75
2023-03-06T12:29:23.086Z,7.87
2023-03-06T12:32:08.391Z,7.95
2023-03-06T12:35:06.677Z,8.01
2023-03-06T12:37:39.524Z,8.07
2023-03-06T12:40:12.196Z,8.15
2023-03-06T12:43:05.001Z,8.26
2023-03-06T12:45:37.049Z,8.31
2023-03-06T12:48:11.024Z,8.25
2023-03-06T12:50:38.857Z,8.10
2023-03-06T12:53:15.224Z,7.98
2023-03-06T12:55:50.540Z,8.00
2023-03-06T12:58:31.838Z,8.09
2023-03-06T13:01:14.547Z,8.11
2023-03-06T13:04:02.461Z,8.14
2023-03-06T13:06:59.438Z,8.17
2023-03-06T13:09:25.850Z,8.25
2023-03-06T13:12:27.038Z,8.35
2023-03-06T13:14:54.920Z,8.45
2023-03-06T13:17:24.445Z,8.55
2023-03-06T13:20:15.477Z,8.52
2023-03-06T13:22:46.922Z,8.47
2023-03-06T13:25:19.617Z,8.47
2023-03-06T13:27:52.730Z,8.39
2023-03-06T13:30:28.362Z,8.36
2023-03-06T13:32:56.253Z,8.33
2023-03-06T13:35:35.765Z,8.41
2023-03-06T13:38:02.393Z,8.31
2023-03-06T13:40:34.458Z,8.33
2023-03-06T13:43:06.974Z,8.25
2023-03-06T13:45:38.458Z,8.34
2023-03-06T13:48:30.197Z,8.26
2023-03-06T13:50:55.435Z,8.22
2023-03-06T13:53:52.604Z,8.27
2023-03-06T13:56:54.485Z,8.26
2023-03-06T14:00:08.980Z,8.26
2023-03-06T14:03:06.182Z,8.21
2023-03-06T14:05:50.586Z,8.21
2023-03-06T14:08:21.706Z,8.24
2023-03-06T14:10:59.182Z,8.27
2023-03-06T14:13:35.211Z,8.28
2023-03-06T14:16:21.572Z,8.23
2023-03-06T14:18:50.534Z,8.24
2023-03-06T14:21:30.691Z,8.18
2023-03-06T14:24:02.873Z,8.10
2023-03-06T14:26:34.153Z,8.13
2023-03-06T14:29:03.016Z,8.11
2023-03-06T14:31:43.158Z,7.92
2023-03-06T14:34:40.132Z,7.72
2023-03-06T14:37:19.926Z,7.57
2023-03-06T14:39:46.870Z,7.61
2023-03-06T14:42:25.197Z,7.55
2023-03-06T14:45:02.641Z,7.59
2023-03-06T14:47:35.505Z,7.46
2023-03-06T14:50:21.720Z,7.26
2023-03-06T14:52:50.609Z,7.17
2023-03-06T14:55:19.695Z,7.09
2023-03-06T14:57:51.088Z,7.06
2023-03-06T15:00:23.336Z,7.02
2023-03-06T15:02:53.057Z,6.99
2023-03-06T15:05:25.561Z,6.81
2023-03-06T15:07:54.378Z,6.78
2023-03-06T15:10:26.966Z,6.80
2023-03-06T15:12:54.082Z,6.80
2023-03-06T15:15:30.182Z,6.85
2023-03-06T15:17:56.701Z,6.81
2023-03-06T15:20:43.583Z,6.79
2023-03-06T15:23:19.492Z,6.75
2023-03-06T15:25:55.231Z,6.75
2023-03-06T15:28:33.084Z,6.61
2023-03-06T15:31:25.681Z,6.60
2023-03-06T15:34:07.489Z,6.49
2023-03-06T15:36:35.077Z,6.43
2023-03-06T15:39:01.748Z,6.43
2023-03-06T15:41:38.996Z,6.40
2023-03-06T15:44:12.420Z,6.35
2023-03-06T15:46:39.079Z,6.30
2023-03-06T15:49:14.329Z,6.19
2023-03-06T15:51:40.941Z,6.13
2023-03-06T15:54:12.299Z,6.05
2023-03-06T15:56:42.667Z,5.96
2023-03-06T15:59:19.965Z,5.99
2023-03-06T16:01:46.508Z,6.01
2023-03-06T16:04:13.708Z,5.98
2023-03-06T16:06:40.671Z,5.93
2023-03-06T16:09:07.093Z,5.85
2023-03-06T16:11:43.321Z,5.70
2023-03-06T16:14:23.405Z,5.60
2023-03-06T16:16:51.710Z,5.50
2023-03-06T16:19:26.259Z,5.49
2023-03-06T16:21:54.897Z,5.41
2023-03-06T16:24:21.869Z,5.36
2023-03-06T16:26:53.331Z,5.34
2023-03-06T16:29:24.831Z,5.24
2023-03-06T16:31:51.768Z,5.08
2023-03-06T16:34:19.792Z,5.11
2023-03-06T16:36:48.312Z,4.98
2023-03-06T16:39:19.160Z,4.83
2023-03-06T16:41:49.378Z,4.77
2023-03-06T16:44:16.279Z,4.73
2023-03-06T16:46:45.830Z,4.66
2023-03-06T16:49:18.708Z,4.62
2023-03-06T16:51:45.533Z,4.57
2023-03-06T16:54:12.806Z,4.60
2023-03-06T16:56:39.302Z,4.61
2023-03-06T16:59:05.716Z,4.59
2023-03-06T17:01:32.468Z,4.62
2023-03-06T17:03:59.375Z,4.58
2023-03-06T17:06:25.989Z,4.53
2023-03-06T17:08:52.402Z,4.49
2023-03-06T17:11:20.376Z,4.42
2023-03-06T17:13:47.625Z,4.40
2023-03-06T17:16:18.514Z,4.39
2023-03-06T17:18:46.268Z,4.34
2023-03-06T17:21:15.680Z,4.30
2023-03-06T17:23:42.720Z,4.28
2023-03-06T17:26:18.716Z,4.27
2023-03-06T17:28:46.132Z,4.32
2023-03-06T17:31:21.481Z,4.29
2023-03-06T17:33:48.796Z,4.26
2023-03-06T17:36:16.699Z,4.26
2023-03-06T17:38:43.309Z,4.26
2023-03-06T17:41:11.386Z,4.20
2023-03-06T17:43:38.188Z,4.14
2023-03-06T17:46:10.677Z,4.09
2023-03-06T17:48:37.783Z,4.10
2023-03-06T17:51:04.942Z,4.11
2023-03-06T17:53:31.710Z,4.06
2023-03-06T17:55:58.362Z,4.03
2023-03-06T17:58:25.677Z,4.01
2023-03-06T18:00:52.983Z,3.97
2023-03-06T18:03:19.614Z,3.96
2023-03-06T18:05:46.063Z,3.97
2023-03-06T18:08:12.699Z,3.93
2023-03-06T18:10:40.427Z,3.91
2023-03-06T18:13:08.413Z,3.88
2023-03-06T18:15:38.694Z,3.90
2023-03-06T18:18:05.379Z,3.89
2023-03-06T18:20:32.779Z,3.83
2023-03-06T18:23:03.326Z,3.80
2023-03-06T18:25:31.740Z,3.79
2023-03-06T18:27:58.600Z,3.72
2023-03-06T18:30:25.177Z,3.66
2023-03-06T18:32:51.734Z,3.63
2023-03-06T18:35:18.383Z,3.61
2023-03-06T18:37:44.940Z,3.58
2023-03-06T18:40:12.625Z,3.61
2023-03-06T18:42:39.074Z,3.58
2023-03-06T18:45:06.183Z,3.54
2023-03-06T18:47:33.655Z,3.47
2023-03-06T18:50:00.259Z,3.45
2023-03-06T18:52:26.742Z,3.45
2023-03-06T18:54:53.501Z,3.46
2023-03-06T18:57:20.018Z,3.45
2023-03-06T18:59:46.487Z,3.39
2023-03-06T19:02:13.126Z,3.34
2023-03-06T19:04:39.722Z,3.29
2023-03-06T19:07:06.527Z,3.26
2023-03-06T19:09:33.260Z,3.24
2023-03-06T19:12:03.045Z,3.17
2023-03-06T19:14:29.780Z,3.20
2023-03-06T19:16:56.516Z,3.16
2023-03-06T19:19:26.338Z,3.16
2023-03-06T19:21:53.716Z,3.16
2023-03-06T19:24:20.158Z,3.13
2023-03-06T19:26:46.631Z,3.12
2023-03-06T19:29:13.089Z,3.09
2023-03-06T19:31:39.580Z,3.05
2023-03-06T19:34:06.312Z,3.04
2023-03-06T19:36:34.151Z,3.02
2023-03-06T19:39:03.538Z,3.02
2023-03-06T19:41:30.775Z,2.99
2023-03-06T19:44:02.171Z,2.95
2023-03-06T19:46:28.717Z,2.96
2023-03-06T19:48:57.262Z,2.96
2023-03-06T19:51:24.730Z,2.96
2023-03-06T19:53:51.334Z,2.96
2023-03-06T19:56:22.588Z,2.95
2023-03-06T19:58:49.122Z,2.95
2023-03-06T20:01:18.131Z,2.96
2023-03-06T20:03:44.914Z,2.97
2023-03-06T20:06:17.434Z,2.97
2023-03-06T20:08:45.061Z,2.94
2023-03-06T20:11:18.948Z,2.94
2023-03-06T20:13:47.516Z,2.96
2023-03-06T20:16:18.485Z,2.98
2023-03-06T20:18:45.652Z,2.98
2023-03-06T20:21:12.283Z,2.99
2023-03-06T20:23:38.775Z,3.01
2023-03-06T20:26:12.053Z,3.02
2023-03-06T20:28:39.614Z,3.03
2023-03-06T20:31:08.520Z,3.03
2023-03-06T20:33:35.414Z,3.05
2023-03-06T20:36:02.045Z,3.09
2023-03-06T20:38:28.671Z,3.10
2023-03-06T20:40:56.087Z,3.11
2023-03-06T20:43:23.553Z,3.12
2023-03-06T20:46:03.486Z,3.12
2023-03-06T20:48:30.045Z,3.13
2023-03-06T20:51:04.612Z,3.16
2023-03-06T20:53:31.507Z,3.18
2023-03-06T20:55:58.212Z,3.20
2023-03-06T20:58:28.517Z,3.21
2023-03-06T21:00:55.182Z,3.22
2023-03-06T21:03:22.016Z,3.22
2023-03-06T21:05:48.699Z,3.25
2023-03-06T21:08:16.704Z,3.28
2023-03-06T21:10:45.543Z,3.31
2023-03-06T21:13:12.393Z,3.33
2023-03-06T21:15:40.623Z,3.35
2023-03-06T21:18:07.323Z,3.35
2023-03-06T21:20:34.723Z,3.37
2023-03-06T21:23:04.002Z,3.40
2023-03-06T21:25:30.673Z,3.42
2023-03-06T21:27:58.776Z,3.44
2023-03-06T21:30:25.281Z,3.46
2023-03-06T21:32:52.418Z,3.46
2023-03-06T21:35:19.401Z,3.50
2023-03-06T21:37:46.997Z,3.51
2023-03-06T21:40:16.815Z,3.53
2023-03-06T21:42:43.420Z,3.55
2023-03-06T21:45:10.288Z,3.57
2023-03-06T21:47:38.779Z,3.59
2023-03-06T21:50:07.084Z,3.60
2023-03-06T21:52:33.624Z,3.62
2023-03-06T21:55:00.292Z,3.64
2023-03-06T21:57:27.080Z,3.69
2023-03-06T21:59:53.613Z,3.71
2023-03-06T22:02:21.355Z,3.71
2023-03-06T22:04:52.496Z,3.74
2023-03-06T22:07:20.248Z,3.75
2023-03-06T22:09:47.351Z,3.78
2023-03-06T22:12:13.858Z,3.79
2023-03-06T22:14:41.387Z,3.82
2023-03-06T22:17:07.887Z,3.80
2023-03-06T22:19:34.424Z,3.81
2023-03-06T22:22:01.065Z,3.79
2023-03-06T22:24:27.694Z,3.79
2023-03-06T22:26:54.103Z,3.79
2023-03-06T22:29:20.606Z,3.81
2023-03-06T22:31:47.043Z,3.83
2023-03-06T22:34:13.674Z,3.85
2023-03-06T22:36:40.165Z,3.83
2023-03-06T22:39:06.697Z,3.83
2023-03-06T22:41:33.333Z,3.82
2023-03-06T22:44:02.230Z,3.81
2023-03-06T22:46:29.525Z,3.80
2023-03-06T22:49:00.474Z,3.78
2023-03-06T22:51:28.674Z,3.77
2023-03-06T22:53:55.569Z,3.75
2023-03-06T22:56:22.882Z,3.74
2023-03-06T22:58:49.704Z,3.74
2023-03-06T23:01:21.741Z,3.73
2023-03-06T23:03:53.673Z,3.76
2023-03-06T23:06:35.119Z,3.76
2023-03-06T23:09:06.031Z,3.75
2023-03-06T23:11:51.665Z,3.75
2023-03-06T23:14:37.016Z,3.74
2023-03-06T23:17:21.925Z,3.69
2023-03-06T23:20:10.024Z,3.68
2023-03-06T23:22:55.082Z,3.68
2023-03-06T23:25:40.454Z,3.68
2023-03-06T23:28:07.536Z,3.67
2023-03-06T23:30:33.975Z,3.68
2023-03-06T23:33:00.428Z,3.70
2023-03-06T23:35:26.875Z,3.72
2023-03-06T23:37:53.415Z,3.73
2023-03-06T23:40:20.477Z,3.76
2023-03-06T23:42:46.984Z,3.78
2023-03-06T23:45:13.481Z,3.80
2023-03-06T23:47:40.016Z,3.83
2023-03-06T23:50:06.755Z,3.86
2023-03-06T23:52:33.462Z,3.89
2023-03-06T23:54:59.936Z,3.91
2023-03-06T23:57:26.498Z,3.92
2023-03-06T23:59:55.133Z,3.92
